Jasper — TCTL2 — position and weather

sailwx.info

Track history (hours):
 
Tides and Currents Weather Stations Pressure Air Temp Water Temp Dewpoint Dewpoint Depression Visibility Wind Speed Wind Dir Waves Ship Positions

Jasper

Last reported at 2015-Jan-30 19:19 UTC. Time now 2015-Feb-01 19:44 UTC.
Position N 43°30' E 037°51'.

Length 94 m; draft 6.6 m.

Type: Cargo ship. MMSI: 271002689.

Date/timePositionNaut miles runAvg speedWind from/ knotsBaromVisibWave heightAir tempDewpointWater temp
2015-Jan-30 19:19N 43°30' E 037°51'32 8.5
2015-Jan-30 15:33N 43°46' E 038°29'8 7.3
2015-Jan-30 14:28N 43°51' E 038°38'7 7.0
2015-Jan-30 13:32N 43°57' E 038°42'7 6.9
2015-Jan-30 12:32N 44°02' E 038°47'6 6.4
2015-Jan-30 11:33N 44°04' E 038°56'6 6.1
2015-Jan-30 10:33N 44°05' E 039°04'0 0.4
2015-Jan-30 09:31N 44°06' E 039°04'0 0.0
2015-Jan-30 08:31N 44°06' E 039°04'0 0.0
2015-Jan-30 07:33N 44°06' E 039°04'0 0.0
2015-Jan-30 06:32N 44°06' E 039°04'0 0.0
2015-Jan-30 05:31N 44°06' E 039°04'0 0.0
2015-Jan-30 04:33N 44°06' E 039°04'0 0.0
2015-Jan-30 03:33N 44°06' E 039°04'0 0.0
2015-Jan-30 02:33N 44°06' E 039°04'0 0.0
2015-Jan-30 01:33N 44°06' E 039°04'0 0.0
2015-Jan-30 00:33N 44°06' E 039°04'0 0.0
2015-Jan-29 23:32N 44°06' E 039°04'0 0.0
2015-Jan-29 22:32N 44°06' E 039°04'0 0.0
2015-Jan-29 21:32N 44°06' E 039°04'0 0.0
2015-Jan-29 20:32N 44°06' E 039°04'0 0.0
2015-Jan-29 19:32N 44°06' E 039°04'0 0.0
2015-Jan-29 18:32N 44°06' E 039°04'0 0.0
2015-Jan-29 17:33N 44°06' E 039°04'0 0.0
2015-Jan-29 16:31N 44°06' E 039°04'0 0.0
2015-Jan-29 15:31N 44°06' E 039°04'0 0.0
2015-Jan-29 14:32N 44°06' E 039°04'0 0.0
2015-Jan-29 13:32N 44°06' E 039°04'0 0.0
2015-Jan-29 12:32N 44°06' E 039°04'0 0.0
2015-Jan-29 11:33N 44°06' E 039°04'0 0.0
2015-Jan-29 10:33N 44°06' E 039°04'0 0.0
2015-Jan-29 09:32N 44°06' E 039°04'0 0.0
2015-Jan-29 08:31N 44°06' E 039°04'0 0.0
2015-Jan-29 07:31N 44°06' E 039°04'0 0.0
2015-Jan-29 06:33N 44°06' E 039°04'0 0.0
2015-Jan-29 05:32N 44°06' E 039°04'0 0.0
2015-Jan-29 04:32N 44°06' E 039°04'0 0.0
2015-Jan-29 03:32N 44°06' E 039°04'0 0.0
2015-Jan-29 02:32N 44°06' E 039°04'0 0.0
2015-Jan-29 01:31N 44°06' E 039°04'0 0.0
2015-Jan-29 00:32N 44°06' E 039°04'0 0.0
2015-Jan-28 23:31N 44°06' E 039°04'0 0.0
2015-Jan-28 22:32N 44°06' E 039°04'0 0.0
2015-Jan-28 21:32N 44°06' E 039°04'0 0.0
2015-Jan-28 20:32N 44°06' E 039°04'0 0.0
2015-Jan-28 19:31N 44°06' E 039°04'0 0.0
2015-Jan-28 18:32N 44°06' E 039°04'0 0.0
2015-Jan-28 17:32N 44°06' E 039°04'0 0.0
2015-Jan-28 16:32N 44°06' E 039°04'0 0.0
2015-Jan-28 15:32N 44°06' E 039°04'0 0.0
2015-Jan-28 14:33N 44°06' E 039°04'0 0.0
2015-Jan-28 13:32N 44°06' E 039°04'0 0.0
2015-Jan-28 12:32N 44°06' E 039°04'0 0.0
2015-Jan-28 11:32N 44°06' E 039°04'0 0.0
2015-Jan-28 10:33N 44°06' E 039°04'0 0.0
2015-Jan-28 09:32N 44°06' E 039°04'0 0.0
2015-Jan-28 08:32N 44°06' E 039°04'0 0.0
2015-Jan-28 07:33N 44°06' E 039°04'0 0.0
2015-Jan-28 06:33N 44°06' E 039°04'0 0.0
2015-Jan-28 05:31N 44°06' E 039°04'0 0.0
2015-Jan-28 04:31N 44°06' E 039°04'0 0.0
2015-Jan-28 03:15N 44°06' E 039°04'0 0.0
2015-Jan-28 02:33N 44°06' E 039°04'0 0.0
2015-Jan-28 01:33N 44°06' E 039°04'0 0.0
2015-Jan-28 00:33N 44°06' E 039°04'0 0.0
2015-Jan-27 23:32N 44°06' E 039°04'0 0.0
2015-Jan-27 22:32N 44°06' E 039°04'0 0.0
2015-Jan-27 21:33N 44°06' E 039°04'0 0.0
2015-Jan-27 20:32N 44°06' E 039°04'0 0.0
2015-Jan-27 19:31N 44°06' E 039°04'0 0.0
2015-Jan-27 18:31N 44°06' E 039°04'0 0.0
2015-Jan-27 17:33N 44°06' E 039°04'0 0.0
2015-Jan-27 16:32N 44°06' E 039°04'0 0.0
2015-Jan-27 15:31N 44°06' E 039°04'0 0.0
2015-Jan-27 14:31N 44°06' E 039°04'0 0.0
2015-Jan-27 13:33N 44°06' E 039°04'0 0.0
2015-Jan-27 12:33N 44°06' E 039°04'0 0.0
2015-Jan-27 11:33N 44°06' E 039°04'0 0.0
2015-Jan-27 10:33N 44°06' E 039°04'0 0.0
2015-Jan-27 09:33N 44°06' E 039°04'0 0.0
2015-Jan-27 08:32N 44°06' E 039°04'0 0.0
2015-Jan-27 07:32N 44°06' E 039°04'0 0.0
2015-Jan-27 06:32N 44°06' E 039°04'0 0.3
2015-Jan-27 05:33N 44°05' E 039°04'2 1.5
2015-Jan-27 04:32N 44°04' E 039°05'0 0.0
2015-Jan-27 03:31N 44°04' E 039°05'0 0.0
2015-Jan-27 02:31N 44°04' E 039°05'0 0.0
2015-Jan-27 01:32N 44°04' E 039°05'0 0.0
2015-Jan-27 00:32N 44°04' E 039°05'0 0.0
2015-Jan-26 23:31N 44°04' E 039°05'0 0.0
2015-Jan-26 22:31N 44°04' E 039°05'0 0.0
2015-Jan-26 21:31N 44°04' E 039°05'0 0.0
2015-Jan-26 20:31N 44°04' E 039°05'3 3.5
2015-Jan-26 19:33N 44°01' E 039°03'10 9.8
2015-Jan-26 18:32N 43°56' E 038°51'187 9.7
2015-Jan-25 23:21N 42°15' E 035°16'258 9.3
2015-Jan-24 19:27N 41°15' E 029°38'8 8.7
2015-Jan-24 18:33N 41°15' E 029°28'  
Track history (hours):
 
Tides and Currents Weather Stations Pressure Air Temp Water Temp Dewpoint Dewpoint Depression Visibility Wind Speed Wind Dir Waves Ship Positions

Jasper

Last reported at 2015-Jan-30 19:19 UTC. Time now 2015-Feb-01 19:44 UTC.
Position N 43°30' E 037°51'.

Length 94 m; draft 6.6 m.

Type: Cargo ship. MMSI: 271002689.

Date/timePositionNaut miles runAvg speedWind from/ knotsBaromVisibWave heightAir tempDewpointWater temp
2015-Jan-30 19:19N 43°30' E 037°51'32 8.5
2015-Jan-30 15:33N 43°46' E 038°29'8 7.3
2015-Jan-30 14:28N 43°51' E 038°38'7 7.0
2015-Jan-30 13:32N 43°57' E 038°42'7 6.9
2015-Jan-30 12:32N 44°02' E 038°47'6 6.4
2015-Jan-30 11:33N 44°04' E 038°56'6 6.1
2015-Jan-30 10:33N 44°05' E 039°04'0 0.4
2015-Jan-30 09:31N 44°06' E 039°04'0 0.0
2015-Jan-30 08:31N 44°06' E 039°04'0 0.0
2015-Jan-30 07:33N 44°06' E 039°04'0 0.0
2015-Jan-30 06:32N 44°06' E 039°04'0 0.0
2015-Jan-30 05:31N 44°06' E 039°04'0 0.0
2015-Jan-30 04:33N 44°06' E 039°04'0 0.0
2015-Jan-30 03:33N 44°06' E 039°04'0 0.0
2015-Jan-30 02:33N 44°06' E 039°04'0 0.0
2015-Jan-30 01:33N 44°06' E 039°04'0 0.0
2015-Jan-30 00:33N 44°06' E 039°04'0 0.0
2015-Jan-29 23:32N 44°06' E 039°04'0 0.0
2015-Jan-29 22:32N 44°06' E 039°04'0 0.0
2015-Jan-29 21:32N 44°06' E 039°04'0 0.0
2015-Jan-29 20:32N 44°06' E 039°04'0 0.0
2015-Jan-29 19:32N 44°06' E 039°04'0 0.0
2015-Jan-29 18:32N 44°06' E 039°04'0 0.0
2015-Jan-29 17:33N 44°06' E 039°04'0 0.0
2015-Jan-29 16:31N 44°06' E 039°04'0 0.0
2015-Jan-29 15:31N 44°06' E 039°04'0 0.0
2015-Jan-29 14:32N 44°06' E 039°04'0 0.0
2015-Jan-29 13:32N 44°06' E 039°04'0 0.0
2015-Jan-29 12:32N 44°06' E 039°04'0 0.0
2015-Jan-29 11:33N 44°06' E 039°04'0 0.0
2015-Jan-29 10:33N 44°06' E 039°04'0 0.0
2015-Jan-29 09:32N 44°06' E 039°04'0 0.0
2015-Jan-29 08:31N 44°06' E 039°04'0 0.0
2015-Jan-29 07:31N 44°06' E 039°04'0 0.0
2015-Jan-29 06:33N 44°06' E 039°04'0 0.0
2015-Jan-29 05:32N 44°06' E 039°04'0 0.0
2015-Jan-29 04:32N 44°06' E 039°04'0 0.0
2015-Jan-29 03:32N 44°06' E 039°04'0 0.0
2015-Jan-29 02:32N 44°06' E 039°04'0 0.0
2015-Jan-29 01:31N 44°06' E 039°04'0 0.0
2015-Jan-29 00:32N 44°06' E 039°04'0 0.0
2015-Jan-28 23:31N 44°06' E 039°04'0 0.0
2015-Jan-28 22:32N 44°06' E 039°04'0 0.0
2015-Jan-28 21:32N 44°06' E 039°04'0 0.0
2015-Jan-28 20:32N 44°06' E 039°04'0 0.0
2015-Jan-28 19:31N 44°06' E 039°04'0 0.0
2015-Jan-28 18:32N 44°06' E 039°04'0 0.0
2015-Jan-28 17:32N 44°06' E 039°04'0 0.0
2015-Jan-28 16:32N 44°06' E 039°04'0 0.0
2015-Jan-28 15:32N 44°06' E 039°04'0 0.0
2015-Jan-28 14:33N 44°06' E 039°04'0 0.0
2015-Jan-28 13:32N 44°06' E 039°04'0 0.0
2015-Jan-28 12:32N 44°06' E 039°04'0 0.0
2015-Jan-28 11:32N 44°06' E 039°04'0 0.0
2015-Jan-28 10:33N 44°06' E 039°04'0 0.0
2015-Jan-28 09:32N 44°06' E 039°04'0 0.0
2015-Jan-28 08:32N 44°06' E 039°04'0 0.0
2015-Jan-28 07:33N 44°06' E 039°04'0 0.0
2015-Jan-28 06:33N 44°06' E 039°04'0 0.0
2015-Jan-28 05:31N 44°06' E 039°04'0 0.0
2015-Jan-28 04:31N 44°06' E 039°04'0 0.0
2015-Jan-28 03:15N 44°06' E 039°04'0 0.0
2015-Jan-28 02:33N 44°06' E 039°04'0 0.0
2015-Jan-28 01:33N 44°06' E 039°04'0 0.0
2015-Jan-28 00:33N 44°06' E 039°04'0 0.0
2015-Jan-27 23:32N 44°06' E 039°04'0 0.0
2015-Jan-27 22:32N 44°06' E 039°04'0 0.0
2015-Jan-27 21:33N 44°06' E 039°04'0 0.0
2015-Jan-27 20:32N 44°06' E 039°04'0 0.0
2015-Jan-27 19:31N 44°06' E 039°04'0 0.0
2015-Jan-27 18:31N 44°06' E 039°04'0 0.0
2015-Jan-27 17:33N 44°06' E 039°04'0 0.0
2015-Jan-27 16:32N 44°06' E 039°04'0 0.0
2015-Jan-27 15:31N 44°06' E 039°04'0 0.0
2015-Jan-27 14:31N 44°06' E 039°04'0 0.0
2015-Jan-27 13:33N 44°06' E 039°04'0 0.0
2015-Jan-27 12:33N 44°06' E 039°04'0 0.0
2015-Jan-27 11:33N 44°06' E 039°04'0 0.0
2015-Jan-27 10:33N 44°06' E 039°04'0 0.0
2015-Jan-27 09:33N 44°06' E 039°04'0 0.0
2015-Jan-27 08:32N 44°06' E 039°04'0 0.0
2015-Jan-27 07:32N 44°06' E 039°04'0 0.0
2015-Jan-27 06:32N 44°06' E 039°04'0 0.3
2015-Jan-27 05:33N 44°05' E 039°04'2 1.5
2015-Jan-27 04:32N 44°04' E 039°05'0 0.0
2015-Jan-27 03:31N 44°04' E 039°05'0 0.0
2015-Jan-27 02:31N 44°04' E 039°05'0 0.0
2015-Jan-27 01:32N 44°04' E 039°05'0 0.0
2015-Jan-27 00:32N 44°04' E 039°05'0 0.0
2015-Jan-26 23:31N 44°04' E 039°05'0 0.0
2015-Jan-26 22:31N 44°04' E 039°05'0 0.0
2015-Jan-26 21:31N 44°04' E 039°05'0 0.0
2015-Jan-26 20:31N 44°04' E 039°05'3 3.5
2015-Jan-26 19:33N 44°01' E 039°03'10 9.8
2015-Jan-26 18:32N 43°56' E 038°51'187 9.7
2015-Jan-25 23:21N 42°15' E 035°16'258 9.3
2015-Jan-24 19:27N 41°15' E 029°38'8 8.7
2015-Jan-24 18:33N 41°15' E 029°28'  

Dump ship's entire track history